Startpagina
METAR-TAF:

METAR-TAF

Vliegvelden :

Internationale Luchthaven Baghdad

Bagdad, Irak

breedte: 33-15-45N, lengte: 44-14-04E, hoogte: 35 m

Actueel weer

Dit bericht is 25 minuten geleden gemaakt, om 15:30 UTC
Wind 3 kt uit het noordnoordoosten
Temperatuur 30°C
Vochtigheid 29%
Druk 1011 hPa
Zicht: 7000 m
Weinig wolken op 4900 ft

METAR: ORBI 171530Z 02003KT 7000 FEW049 30/10 Q1011

Tijdstip: 18:55 (15:55 UTC)

Verwachting

Dit bericht is 5 uur en het 55 minuten geleden gemaakt, om 10:00 UTC
Verwachting geldig van 17 om 12 UTC tot 18 om 12 UTC
Wind 5 kt uit het oosten
Zicht: 7000 m
Gebroken wolken op 3000 ft

TAF: ORBI 171000Z 1712/1812 08005KT 7000 BKN030

Waarnemingen en weersverwachtingen van meer dan 4000 vliegvelden (METAR en TAF).

De beschikbare stations zijn de gele en rode punten op de kaart.

Ga met uw muis naar het station om de naam te zien.

Klik dan om waarnemingen en weersverwachtingen te zien.

kaart wijzigen: klik op de groene knoppen met een zwart kruis om in te zoomen, op de groene knop met een streepje om uit te zoomen of op de groene pijlen voor aangrenzende kaarten.


METAR-TAF: